Time;durP1;ratioP1;P1;durP2;ratioP2;P2;SDS_P1;SDS_P2;PMS_P1;PMS_P2;Temp;Humidity;BMP_temperature;BMP_pressure;BME280_temperature;BME280_humidity;BME280_pressure;Samples;Min_cycle;Max_cycle;Signal;HPM_P1;HPM_P2
2022/06/13 00:02:07;;;;;;;9.93;6.82;;;;;;;17.11;84.11;99272.00;4973183;28;20034;-93
2022/06/13 00:04:35;;;;;;;12.93;6.95;;;;;;;17.09;83.98;99261.41;4956694;29;20027;-93
2022/06/13 00:07:01;;;;;;;12.93;7.22;;;;;;;17.20;83.98;99280.19;4924276;29;20035;-93
2022/06/13 00:09:27;;;;;;;12.30;7.55;;;;;;;17.25;83.75;99280.84;4924882;29;20082;-92
2022/06/13 00:11:52;;;;;;;10.23;5.82;;;;;;;17.29;82.94;99289.19;4940130;29;20478;-93
2022/06/13 00:14:21;;;;;;;7.68;6.20;;;;;;;17.13;82.88;99270.56;4924905;29;20489;-92
2022/06/13 00:16:47;;;;;;;11.77;6.80;;;;;;;17.04;83.50;99275.16;4972430;28;20038;-93
2022/06/13 00:19:12;;;;;;;11.65;6.30;;;;;;;16.96;83.86;99259.63;4924308;29;20094;-93
2022/06/13 00:21:40;;;;;;;11.82;6.50;;;;;;;17.02;84.16;99266.53;4924418;29;20046;-93
2022/06/13 00:24:07;;;;;;;12.02;7.13;;;;;;;16.95;84.19;99263.44;4972442;28;20031;-93
2022/06/13 00:26:33;;;;;;;9.13;6.45;;;;;;;16.88;83.91;99241.34;4924895;29;20481;-94
2022/06/13 00:28:59;;;;;;;10.98;6.13;;;;;;;17.00;83.39;99251.63;4924844;29;20085;-94
2022/06/13 00:31:25;;;;;;;11.38;6.45;;;;;;;17.02;83.24;99255.63;4939697;29;20045;-93
2022/06/13 00:33:52;;;;;;;10.05;7.03;;;;;;;17.04;83.34;99260.78;4924367;29;20486;-94
2022/06/13 00:36:23;;;;;;;10.15;6.85;;;;;;;16.98;83.62;99262.81;4924181;29;20062;-93
2022/06/13 00:39:05;;;;;;;10.27;7.00;;;;;;;17.12;84.06;99274.41;4928940;29;20038;-93
2022/06/13 00:41:32;;;;;;;9.77;6.78;;;;;;;17.29;83.01;99279.09;4922820;29;20039;-94
2022/06/13 00:44:01;;;;;;;8.23;6.13;;;;;;;17.31;82.15;99257.03;4922791;29;20072;-93
2022/06/13 00:46:28;;;;;;;10.52;7.38;;;;;;;17.35;83.11;99266.94;4923675;29;20031;-93
2022/06/13 00:49:03;;;;;;;10.52;7.50;;;;;;;17.23;82.81;99252.34;4939290;29;20535;-93
2022/06/13 00:51:30;;;;;;;9.43;7.35;;;;;;;17.24;83.32;99253.94;4923522;29;20038;-94
2022/06/13 00:53:56;;;;;;;11.40;8.32;;;;;;;17.16;83.74;99247.34;4922674;29;20042;-94
2022/06/13 00:56:25;;;;;;;13.98;8.43;;;;;;;17.14;83.57;99239.53;4923016;29;20027;-94
2022/06/13 00:58:57;;;;;;;11.27;7.70;;;;;;;17.19;83.85;99248.66;4922426;29;20135;-95
2022/06/13 01:01:23;;;;;;;12.10;8.15;;;;;;;17.12;83.54;99233.59;4954177;29;20027;-94
2022/06/13 01:03:50;;;;;;;10.57;7.80;;;;;;;17.08;83.93;99231.78;4922879;29;20050;-94
2022/06/13 01:06:15;;;;;;;9.73;7.20;;;;;;;17.22;83.79;99235.19;4922905;29;20039;-93
2022/06/13 01:08:41;;;;;;;15.52;8.45;;;;;;;17.22;83.20;99245.28;4923403;29;20030;-94
2022/06/13 01:11:17;;;;;;;8.20;7.30;;;;;;;17.31;83.43;99255.09;4937224;29;20059;-91
2022/06/13 01:14:10;;;;;;;9.43;6.75;;;;;;;17.31;82.67;99225.16;4972321;28;20027;-95
2022/06/13 01:16:48;;;;;;;8.23;6.80;;;;;;;17.42;82.30;99233.81;4955149;29;20490;-93
2022/06/13 01:19:14;;;;;;;8.88;7.50;;;;;;;17.54;82.45;99255.78;4939363;29;20031;-94
2022/06/13 01:22:01;;;;;;;8.30;7.38;;;;;;;17.53;82.19;99253.38;4954837;29;20027;-95
2022/06/13 01:24:43;;;;;;;10.38;7.22;;;;;;;17.43;82.22;99232.72;4954967;29;20030;-94
2022/06/13 01:27:31;;;;;;;11.57;7.70;;;;;;;17.55;82.12;99237.53;4970861;28;20121;-94
2022/06/13 01:30:26;;;;;;;11.10;8.20;;;;;;;17.62;82.55;99253.38;4939325;29;20042;-94
2022/06/13 01:33:03;;;;;;;12.32;6.93;;;;;;;17.55;82.06;99240.25;4954575;29;20063;-93
2022/06/13 01:35:47;;;;;;;10.82;6.85;;;;;;;17.61;82.63;99255.31;4938449;29;20050;-93
2022/06/13 01:38:37;;;;;;;11.18;7.80;;;;;;;17.46;82.19;99247.59;4954033;28;20061;-94
2022/06/13 01:41:28;;;;;;;15.27;7.50;;;;;;;17.56;82.42;99253.53;4973665;28;20034;-95
2022/06/13 01:44:27;;;;;;;15.30;7.65;;;;;;;17.54;82.26;99238.66;4954487;29;20086;-94
2022/06/13 01:46:52;;;;;;;10.18;6.95;;;;;;;17.60;82.57;99247.44;4931641;29;20039;-94
2022/06/13 01:49:20;;;;;;;10.43;7.18;;;;;;;17.52;82.75;99251.78;4954086;29;20034;-94
2022/06/13 01:52:14;;;;;;;8.20;6.07;;;;;;;17.64;82.26;99251.13;4955331;28;20031;-95
2022/06/13 01:55:15;;;;;;;9.77;6.07;;;;;;;17.63;81.90;99236.72;4954224;29;20034;-94
2022/06/13 01:57:51;;;;;;;17.50;6.55;;;;;;;17.69;82.04;99245.56;4934193;29;20509;-94
2022/06/13 02:00:19;;;;;;;6.85;5.95;;;;;;;17.49;82.68;99241.50;4902633;29;20122;-93
2022/06/13 02:02:48;;;;;;;7.43;6.07;;;;;;;17.52;82.81;99260.75;4918593;29;20046;-94
2022/06/13 02:05:16;;;;;;;10.02;6.35;;;;;;;17.46;82.70;99245.69;4950089;28;20499;-93
2022/06/13 02:07:44;;;;;;;11.98;6.18;;;;;;;17.51;82.36;99244.72;4918477;29;20035;-94
2022/06/13 02:10:15;;;;;;;6.82;6.05;;;;;;;17.49;82.59;99247.78;4934106;29;20047;-94
2022/06/13 02:12:40;;;;;;;7.75;6.18;;;;;;;17.47;82.37;99244.56;4918830;29;20043;-93
2022/06/13 02:15:12;;;;;;;9.70;6.45;;;;;;;17.49;82.24;99245.06;4934584;29;20442;-95
2022/06/13 02:17:47;;;;;;;12.00;6.10;;;;;;;17.46;82.42;99250.31;4902881;29;20043;-93
2022/06/13 02:20:22;;;;;;;10.48;6.35;;;;;;;17.36;82.48;99233.16;4934106;29;20039;-94
2022/06/13 02:22:49;;;;;;;12.63;6.15;;;;;;;17.44;82.32;99253.38;4918328;29;20513;-93
2022/06/13 02:25:48;;;;;;;10.10;5.97;;;;;;;17.43;82.24;99246.31;4902111;29;20066;-93
2022/06/13 02:28:19;;;;;;;10.95;6.47;;;;;;;17.48;81.82;99258.97;4912337;29;20059;-93
2022/06/13 02:31:06;;;;;;;9.68;6.60;;;;;;;17.38;81.81;99257.34;4922642;29;20126;-93
2022/06/13 02:33:35;;;;;;;11.30;5.68;;;;;;;17.49;81.36;99263.28;4969353;28;20046;-93
2022/06/13 02:36:09;;;;;;;8.52;5.35;;;;;;;17.60;81.63;99274.69;4938027;29;20058;-94
2022/06/13 02:38:53;;;;;;;8.40;5.05;;;;;;;17.59;81.25;99263.00;4953948;29;20038;-94
2022/06/13 02:41:21;;;;;;;9.75;5.90;;;;;;;17.62;81.95;99280.59;4953967;29;20516;-94
2022/06/13 02:44:16;;;;;;;9.73;6.60;;;;;;;17.52;81.24;99268.13;4938375;29;20521;-94
2022/06/13 02:46:51;;;;;;;11.00;5.65;;;;;;;17.51;81.78;99270.00;4941496;29;20039;-94
2022/06/13 02:49:40;;;;;;;10.45;5.70;;;;;;;17.62;81.21;99270.53;4923644;29;20043;-95
2022/06/13 02:52:15;;;;;;;8.07;5.13;;;;;;;17.75;80.80;99282.41;4954823;28;20485;-94
2022/06/13 02:54:56;;;;;;;5.53;4.97;;;;;;;17.80;81.18;99276.78;4955645;28;20043;-94
2022/06/13 02:57:46;;;;;;;8.55;5.57;;;;;;;17.79;80.92;99275.19;4953589;29;20039;-93
2022/06/13 03:00:29;;;;;;;11.65;5.72;;;;;;;17.91;80.44;99280.06;4972453;28;20122;-93
2022/06/13 03:03:07;;;;;;;10.32;4.90;;;;;;;17.96;80.17;99286.13;4954885;28;20020;-93
2022/06/13 03:05:43;;;;;;;5.60;5.00;;;;;;;18.00;79.95;99282.78;4953484;28;20031;-93
2022/06/13 03:08:11;;;;;;;8.07;4.85;;;;;;;17.99;79.97;99290.13;4955245;28;20027;-93
2022/06/13 03:10:42;;;;;;;8.40;5.30;;;;;;;18.02;79.68;99284.06;4957322;29;20035;-93
2022/06/13 03:13:10;;;;;;;7.25;5.43;;;;;;;17.93;80.49;99273.16;4957185;28;20035;-94
2022/06/13 03:16:02;;;;;;;8.43;5.38;;;;;;;17.84;80.77;99256.00;4942062;29;20512;-94
2022/06/13 03:18:31;;;;;;;8.30;5.67;;;;;;;17.84;80.92;99280.50;4958610;28;20085;-94
2022/06/13 03:21:10;;;;;;;9.77;6.40;;;;;;;17.89;80.72;99269.47;4973000;28;20266;-93
2022/06/13 03:23:46;;;;;;;9.68;6.10;;;;;;;18.05;80.40;99288.06;4941523;29;20050;-95
2022/06/13 03:26:25;;;;;;;13.13;6.45;;;;;;;17.79;80.21;99261.59;4956806;29;20031;-93
2022/06/13 03:29:11;;;;;;;14.30;6.20;;;;;;;17.96;79.99;99280.69;4951647;28;20054;-93
2022/06/13 03:32:34;;;;;;;8.32;5.47;;;;;;;18.06;80.18;99285.03;4943146;29;20033;-94
2022/06/13 03:35:03;;;;;;;;;;;;;;;18.11;79.76;99284.06;4991652;28;20453;-94
2022/06/13 03:37:44;;;;;;;7.82;5.97;;;;;;;17.99;80.38;99268.34;4974573;28;20001;-93
2022/06/13 03:40:10;;;;;;;6.20;5.60;;;;;;;18.06;80.81;99286.97;4943044;28;20035;-93
2022/06/13 03:42:57;;;;;;;9.55;6.38;;;;;;;18.06;80.67;99292.41;4958787;28;20027;-93
2022/06/13 03:45:25;;;;;;;9.95;6.40;;;;;;;18.05;80.94;99296.25;4958701;28;20117;-94
2022/06/13 03:48:16;;;;;;;8.93;5.88;;;;;;;17.89;80.43;99274.13;4974745;28;20026;-94
2022/06/13 03:50:48;;;;;;;8.97;6.80;;;;;;;17.94;80.46;99282.94;4959204;28;20129;-95
2022/06/13 03:53:20;;;;;;;11.57;6.13;;;;;;;18.12;80.31;99289.19;4942516;28;20037;-93
2022/06/13 03:55:54;;;;;;;10.52;6.00;;;;;;;18.05;80.90;99288.06;4990777;28;20129;-94
2022/06/13 03:58:30;;;;;;;10.88;7.13;;;;;;;18.09;80.58;99294.47;4990459;28;20070;-92
2022/06/13 04:01:30;;;;;;;19.17;6.50;;;;;;;17.97;80.45;99255.06;4974241;28;20042;-92
2022/06/13 04:04:00;;;;;;;10.35;6.43;;;;;;;18.11;80.35;99262.25;4936491;28;20035;-93
2022/06/13 04:06:39;;;;;;;11.27;7.40;;;;;;;18.10;80.21;99263.41;4955643;29;20412;-92
2022/06/13 04:09:21;;;;;;;11.82;5.88;;;;;;;18.23;80.09;99286.94;4957793;28;20030;-94
2022/06/13 04:11:56;;;;;;;;;;;;;;;18.30;80.31;99297.34;4958222;28;20039;-96
2022/06/13 04:14:47;;;;;;;13.85;6.03;;;;;;;18.16;80.38;99270.28;4988762;28;19911;-95
2022/06/13 04:17:27;;;;;;;25.02;8.95;;;;;;;18.30;80.39;99303.63;4956479;29;20039;-95
2022/06/13 04:20:23;;;;;;;13.10;6.63;;;;;;;18.22;80.03;99284.53;4956816;28;20042;-96
2022/06/13 04:22:57;;;;;;;11.30;7.07;;;;;;;18.17;80.46;99275.41;4930131;29;20082;-96
2022/06/13 04:26:02;;;;;;;10.82;7.07;;;;;;;18.43;80.25;99288.22;4941958;29;20031;-95
2022/06/13 04:28:50;;;;;;;20.95;8.45;;;;;;;18.27;80.64;99276.19;4948569;29;20031;-95
2022/06/13 04:31:18;;;;;;;14.80;8.30;;;;;;;18.25;80.79;99279.25;4973636;28;20034;-95
2022/06/13 04:34:21;;;;;;;17.83;9.07;;;;;;;18.23;80.72;99283.41;4941029;29;20039;-95
2022/06/13 04:36:49;;;;;;;16.45;7.82;;;;;;;18.34;80.04;99288.22;4921833;29;20047;-95
2022/06/13 04:39:18;;;;;;;17.63;7.78;;;;;;;18.26;79.92;99280.88;4918628;29;20042;-95
2022/06/13 04:41:47;;;;;;;16.33;8.07;;;;;;;18.37;79.89;99284.84;4906203;29;20027;-94
2022/06/13 04:44:18;;;;;;;13.70;6.35;;;;;;;18.42;80.04;99275.69;4903211;29;20065;-95
2022/06/13 04:46:44;;;;;;;12.20;7.82;;;;;;;18.65;79.23;99305.50;4938552;29;20032;-95
2022/06/13 04:49:29;;;;;;;19.77;7.80;;;;;;;18.80;78.65;99307.75;4923995;29;20038;-94
2022/06/13 04:51:57;;;;;;;15.40;6.00;;;;;;;18.88;77.64;99317.81;4942924;29;20124;-94
2022/06/13 04:54:42;;;;;;;11.60;7.25;;;;;;;19.05;76.87;99319.72;4950883;29;20028;-87
2022/06/13 04:57:14;;;;;;;10.95;7.05;;;;;;;19.14;76.71;99317.75;4936393;29;20023;-93
2022/06/13 04:59:41;;;;;;;12.57;5.90;;;;;;;19.18;75.54;99299.59;4939993;29;20119;-92
2022/06/13 05:02:19;;;;;;;16.40;6.60;;;;;;;19.19;76.45;99300.38;4933522;28;20125;-94
2022/06/13 05:04:46;;;;;;;11.65;6.53;;;;;;;19.37;76.01;99321.03;4946869;28;20091;-93
2022/06/13 05:07:24;;;;;;;15.90;7.45;;;;;;;19.44;76.42;99300.59;4925093;29;20401;-92
2022/06/13 05:10:05;;;;;;;9.75;6.22;;;;;;;19.56;75.41;99303.41;4925080;29;20062;-90
2022/06/13 05:12:41;;;;;;;288.02;225.02;;;;;;;19.41;76.67;99295.81;4941801;29;20031;-96
2022/06/13 05:15:19;;;;;;;12.45;6.88;;;;;;;19.63;75.81;99311.91;4940716;29;20023;-90
2022/06/13 05:18:04;;;;;;;15.65;6.80;;;;;;;19.52;75.86;99286.88;4925803;29;20099;-95
2022/06/13 05:20:51;;;;;;;22.73;8.88;;;;;;;19.79;76.17;99328.53;4988466;28;20027;-92
2022/06/13 05:23:47;;;;;;;12.77;6.82;;;;;;;19.94;74.87;99313.47;4967608;28;20035;-94
2022/06/13 05:26:15;;;;;;;12.50;7.53;;;;;;;20.03;74.74;99310.72;4959001;28;20027;-91
2022/06/13 05:28:45;;;;;;;23.40;8.50;;;;;;;20.13;74.74;99304.81;4940073;29;20414;-90
2022/06/13 05:31:21;;;;;;;32.40;20.80;;;;;;;20.23;73.91;99293.47;4942347;29;20015;-94
2022/06/13 05:33:49;;;;;;;15.60;6.60;;;;;;;20.36;73.54;99300.63;4946874;29;20055;-96
2022/06/13 05:36:25;;;;;;;14.02;7.88;;;;;;;20.44;73.29;99303.59;4946694;29;20430;-96
2022/06/13 05:39:28;;;;;;;26.48;16.33;;;;;;;20.46;73.33;99293.94;4952416;29;20029;-95
2022/06/13 05:42:39;;;;;;;12.40;6.20;;;;;;;20.72;72.81;99325.75;4970575;28;20031;-94
2022/06/13 05:51:43;;;;;;;20.45;7.00;;;;;;;20.87;72.63;99299.66;4942098;29;20090;-95
2022/06/13 05:54:10;;;;;;;7.00;4.47;;;;;;;21.06;69.84;99318.28;4892720;29;20035;-95
2022/06/13 05:56:42;;;;;;;9.88;5.55;;;;;;;21.14;70.02;99306.44;4914848;29;20119;-95
2022/06/13 05:59:10;;;;;;;6.40;4.03;;;;;;;21.13;68.79;99299.38;4895033;29;20032;-95
2022/06/13 06:01:39;;;;;;;6.93;5.07;;;;;;;21.26;69.10;99316.59;4894704;29;20052;-95
2022/06/13 06:04:23;;;;;;;8.27;5.00;;;;;;;21.40;68.79;99328.81;4909787;29;20036;-94
2022/06/13 06:06:58;;;;;;;25.02;8.23;;;;;;;21.09;68.79;99293.75;4930045;29;20076;-92
2022/06/13 06:09:46;;;;;;;46.22;33.58;;;;;;;21.39;69.33;99329.97;4924932;29;20063;-93
2022/06/13 06:12:12;;;;;;;13.15;7.07;;;;;;;21.43;69.33;99319.13;4909630;29;20071;-94
2022/06/13 06:14:38;;;;;;;6.45;4.20;;;;;;;21.55;68.33;99332.84;4892648;29;20421;-95
2022/06/13 06:17:03;;;;;;;10.15;4.70;;;;;;;21.58;68.51;99303.94;4906271;29;20126;-92
2022/06/13 06:19:54;;;;;;;8.57;5.30;;;;;;;21.73;67.88;99321.66;4874010;29;20040;-94
2022/06/13 06:22:40;;;;;;;13.43;5.75;;;;;;;21.68;68.43;99311.69;4907489;29;20036;-93
2022/06/13 06:34:03;;;;;;;4.00;3.10;;;;;;;21.68;64.60;99308.16;4933689;29;20049;-93
2022/06/13 06:37:10;;;;;;;;;;;;;;;;;;;;;
2022/06/13 06:39:39;;;;;;;5.82;3.97;;;;;;;21.64;65.70;99312.75;4920977;29;20046;-93
2022/06/13 06:42:10;;;;;;;6.65;4.15;;;;;;;21.67;65.34;99320.28;4905738;29;20023;-92
2022/06/13 06:48:13;;;;;;;8.25;3.50;;;;;;;21.66;65.00;99326.91;4845631;29;20080;-95
2022/06/13 06:51:12;;;;;;;6.03;3.90;;;;;;;21.84;65.46;99333.72;4854017;29;20128;-94
2022/06/13 06:59:58;;;;;;;5.18;3.40;;;;;;;21.94;64.16;99327.00;4958769;29;20090;-94
2022/06/13 07:05:51;;;;;;;13.57;6.35;;;;;;;22.18;64.85;99315.97;4886766;28;20051;-92
2022/06/13 07:08:16;;;;;;;9.50;5.43;;;;;;;22.29;63.45;99340.19;4946216;29;20374;-92
2022/06/13 07:10:47;;;;;;;5.45;3.75;;;;;;;22.19;63.40;99322.25;4946008;28;20039;-93
2022/06/13 07:13:13;;;;;;;10.48;6.00;;;;;;;22.29;64.12;99324.53;4949596;28;20045;-93
2022/06/13 07:15:40;;;;;;;10.57;7.35;;;;;;;22.16;63.49;99318.25;4964981;28;20058;-94
2022/06/13 07:18:07;;;;;;;46.00;36.50;;;;;;;22.25;63.54;99320.09;4946483;29;20023;-94
2022/06/13 07:20:35;;;;;;;11.50;3.67;;;;;;;22.22;62.47;99315.25;4931125;29;20039;-96
2022/06/13 07:23:04;;;;;;;4.28;3.55;;;;;;;22.29;63.64;99331.97;4946902;28;20101;-94
2022/06/13 07:25:33;;;;;;;5.88;3.53;;;;;;;22.35;62.26;99330.53;4962197;28;20023;-93
2022/06/13 07:27:58;;;;;;;4.97;3.33;;;;;;;22.48;62.77;99334.06;4939611;28;20031;-93
2022/06/13 07:30:26;;;;;;;7.40;3.50;;;;;;;22.40;62.95;99327.56;4957929;28;20065;-95
2022/06/13 07:32:55;;;;;;;3.95;3.00;;;;;;;22.44;62.45;99316.69;4948146;28;20106;-94
2022/06/13 07:35:57;;;;;;;15.10;5.70;;;;;;;22.42;63.28;99329.97;4982677;28;20062;-94
2022/06/13 07:38:22;;;;;;;6.35;3.30;;;;;;;22.31;63.14;99327.72;4967855;28;20042;-94
2022/06/13 07:40:54;;;;;;;9.77;3.88;;;;;;;22.57;62.53;99340.19;4948149;28;20038;-93
2022/06/13 07:43:32;;;;;;;4.28;3.47;;;;;;;22.83;60.99;99353.47;4944153;29;20114;-93
2022/06/13 07:46:36;;;;;;;5.63;3.20;;;;;;;22.64;60.99;99329.41;4959152;29;20024;-95
2022/06/13 07:49:01;;;;;;;4.78;3.20;;;;;;;22.84;60.71;99352.28;4953734;29;20122;-93
2022/06/13 07:51:29;;;;;;;8.10;4.32;;;;;;;22.90;62.04;99350.88;4925157;29;20028;-93
2022/06/13 07:53:55;;;;;;;6.35;3.13;;;;;;;22.76;60.70;99342.25;4953499;28;20060;-93
2022/06/13 07:56:33;;;;;;;5.20;3.20;;;;;;;22.76;60.75;99323.06;4921857;29;20039;-95
2022/06/13 07:58:59;;;;;;;6.10;3.33;;;;;;;22.93;61.27;99341.13;4926037;29;20063;-93
2022/06/13 08:01:25;;;;;;;16.15;6.72;;;;;;;23.07;60.61;99327.03;4923896;29;20108;-94
2022/06/13 08:03:51;;;;;;;4.63;3.42;;;;;;;23.17;60.51;99337.47;4923589;29;20115;-95
2022/06/13 08:06:17;;;;;;;8.95;5.82;;;;;;;23.04;60.28;99334.03;4954021;28;20040;-93
2022/06/13 08:08:48;;;;;;;25.85;17.98;;;;;;;23.27;59.87;99339.72;4921514;29;20055;-94
2022/06/13 08:14:13;;;;;;;6.13;3.30;;;;;;;23.35;60.22;99327.75;4992308;23;20129;-95
2022/06/13 08:16:41;;;;;;;5.20;3.55;;;;;;;23.15;61.18;99318.59;4950833;28;20034;-94
2022/06/13 08:19:46;;;;;;;;;;;;;;;;;;;;;
2022/06/13 08:23:08;;;;;;;;;;;;;;;;;;;;;
2022/06/13 08:25:35;;;;;;;5.82;3.58;;;;;;;23.50;60.31;99325.34;4971991;28;20059;-94
2022/06/13 08:28:01;;;;;;;7.68;4.07;;;;;;;23.63;60.55;99317.78;4946401;29;20063;-94
2022/06/13 08:30:31;;;;;;;6.78;3.40;;;;;;;23.84;60.05;99320.25;4942703;28;20035;-93
2022/06/13 08:32:57;;;;;;;3.83;3.22;;;;;;;23.81;58.64;99313.50;4938444;28;20031;-95
2022/06/13 08:35:24;;;;;;;4.45;3.25;;;;;;;23.88;58.33;99318.38;4954186;28;20119;-95
2022/06/13 08:37:50;;;;;;;5.90;3.80;;;;;;;23.84;60.61;99304.53;4952340;28;20070;-94
2022/06/13 08:40:15;;;;;;;10.75;4.05;;;;;;;23.97;59.34;99303.28;4942955;28;20030;-94
2022/06/13 08:43:07;;;;;;;4.82;3.50;;;;;;;24.16;58.17;99327.25;4929123;28;20222;-92
2022/06/13 08:45:38;;;;;;;8.82;3.60;;;;;;;24.02;57.40;99309.63;4957115;28;20046;-94
2022/06/13 08:48:13;;;;;;;7.30;3.85;;;;;;;24.16;58.78;99330.00;4947150;29;20031;-95
2022/06/13 08:51:00;;;;;;;7.18;3.92;;;;;;;24.26;60.16;99331.38;4949994;28;20035;-95
2022/06/13 08:53:32;;;;;;;4.32;3.45;;;;;;;24.29;58.90;99319.63;4953777;29;20035;-93
2022/06/13 08:55:59;;;;;;;9.88;4.45;;;;;;;24.30;58.26;99298.41;4926185;29;20035;-93
2022/06/13 08:58:36;;;;;;;6.80;3.75;;;;;;;24.42;57.82;99309.28;4945167;29;20030;-94
2022/06/13 09:01:21;;;;;;;5.82;3.97;;;;;;;24.67;56.66;99307.03;4930119;29;20050;-96
2022/06/13 09:04:06;;;;;;;11.88;4.32;;;;;;;24.79;56.41;99303.31;4925213;29;20489;-92
2022/06/13 09:06:45;;;;;;;4.47;3.65;;;;;;;24.92;57.14;99312.19;4925612;29;20035;-93
2022/06/13 09:09:23;;;;;;;10.55;4.38;;;;;;;24.91;56.56;99302.34;4942078;29;20056;-94
2022/06/13 09:11:56;;;;;;;10.00;5.25;;;;;;;24.97;55.36;99293.41;4949981;29;20117;-95
2022/06/13 09:15:30;;;;;;;8.18;3.78;;;;;;;25.09;55.79;99295.19;4941428;29;20047;-94
2022/06/13 09:18:02;;;;;;;10.57;8.48;;;;;;;25.11;53.99;99298.38;4949647;29;20146;-96
2022/06/13 09:27:20;;;;;;;9.40;4.55;;;;;;;25.20;55.57;99290.69;4957277;28;20392;-94
2022/06/13 09:30:16;;;;;;;5.82;3.90;;;;;;;25.34;53.25;99300.34;4926606;29;20147;-95
2022/06/13 09:32:55;;;;;;;5.70;3.88;;;;;;;25.44;54.35;99291.44;4955989;29;20430;-94
2022/06/13 09:35:44;;;;;;;8.18;4.20;;;;;;;25.39;54.36;99289.78;4943312;29;20035;-94
2022/06/13 09:38:22;;;;;;;6.32;3.50;;;;;;;25.46;52.01;99296.59;4926477;29;20149;-93
2022/06/13 09:41:04;;;;;;;10.15;4.97;;;;;;;25.50;54.52;99302.94;4925645;29;20027;-94
2022/06/13 09:43:35;;;;;;;7.35;4.07;;;;;;;25.51;51.93;99302.59;4956994;28;20131;-90
2022/06/13 09:46:01;;;;;;;;;;;;;;;25.54;52.04;99301.81;4957274;28;20098;-92
2022/06/13 09:48:36;;;;;;;6.85;3.72;;;;;;;25.50;52.48;99300.97;4955794;29;19946;-92
2022/06/13 09:51:55;;;;;;;7.55;3.67;;;;;;;25.49;52.65;99298.63;4959407;29;20086;-95
2022/06/13 09:54:39;;;;;;;14.38;7.47;;;;;;;25.53;52.03;99289.22;4967360;28;20027;-93
2022/06/13 09:57:35;;;;;;;6.97;5.05;;;;;;;25.59;52.47;99284.19;4943614;29;20027;-94
2022/06/13 10:00:20;;;;;;;10.68;4.40;;;;;;;25.56;53.22;99276.66;4946110;29;20019;-94
2022/06/13 10:02:55;;;;;;;6.75;3.90;;;;;;;25.67;52.03;99285.06;4956003;29;20027;-91
2022/06/13 10:06:14;;;;;;;11.43;4.32;;;;;;;25.84;52.54;99290.06;4963956;28;20018;-96
2022/06/13 10:08:59;;;;;;;12.10;4.93;;;;;;;26.06;51.21;99284.84;4967633;28;20019;-95
2022/06/13 10:15:11;;;;;;;8.98;3.83;;;;;;;26.39;48.60;99273.78;4958806;28;20201;-95
2022/06/13 10:38:35;;;;;;;5.97;4.07;;;;;;;26.30;48.06;99281.59;4941516;29;19937;-93
2022/06/13 10:41:01;;;;;;;5.28;3.97;;;;;;;26.15;48.85;99247.50;4925970;29;20038;-92
2022/06/13 10:43:26;;;;;;;11.70;4.18;;;;;;;26.05;49.21;99264.72;4924608;29;20047;-92
2022/06/13 10:45:52;;;;;;;87.05;71.32;;;;;;;25.95;50.54;99263.41;4953897;28;20073;-91
2022/06/13 10:48:49;;;;;;;8.32;5.03;;;;;;;25.85;48.41;99249.47;4967893;28;20108;-94
2022/06/13 10:51:14;;;;;;;7.47;4.68;;;;;;;25.99;46.99;99263.47;4980563;28;20035;-92
2022/06/13 10:54:10;;;;;;;6.70;4.50;;;;;;;26.10;47.94;99275.44;4965128;28;20034;-92
2022/06/13 10:56:40;;;;;;;5.88;3.72;;;;;;;26.14;46.14;99251.44;4979814;28;20027;-92
2022/06/13 10:59:09;;;;;;;8.48;4.00;;;;;;;26.29;47.33;99251.59;4975969;28;20069;-95
2022/06/13 11:01:42;;;;;;;8.57;4.10;;;;;;;26.26;47.00;99250.38;4970681;28;20053;-94
2022/06/13 11:04:21;;;;;;;7.30;4.10;;;;;;;26.51;46.84;99236.84;4970795;28;20488;-93
2022/06/13 11:06:54;;;;;;;7.28;3.65;;;;;;;26.69;45.86;99239.81;4969384;28;20038;-94
2022/06/13 11:09:27;;;;;;;4.88;3.78;;;;;;;27.07;45.36;99246.06;4965215;28;20037;-94
2022/06/13 11:12:00;;;;;;;12.00;3.80;;;;;;;26.97;44.84;99230.19;4966462;28;20029;-93
2022/06/13 11:23:10;;;;;;;5.53;4.38;;;;;;;26.76;44.35;99208.69;4966920;28;20066;-95
2022/06/13 11:25:39;;;;;;;5.20;3.95;;;;;;;26.89;43.48;99214.72;4949504;28;20031;-93
2022/06/13 11:28:06;;;;;;;4.50;3.72;;;;;;;26.86;43.41;99207.22;4966299;28;20076;-94
2022/06/13 11:30:45;;;;;;;6.65;3.90;;;;;;;26.91;43.95;99213.16;4996955;28;20416;-95
2022/06/13 11:35:50;;;;;;;9.95;3.92;;;;;;;26.84;44.48;99210.34;4992717;28;20421;-94
2022/06/13 11:38:20;;;;;;;5.38;3.80;;;;;;;26.96;42.72;99225.84;4946485;28;20043;-95
2022/06/13 11:41:17;;;;;;;10.27;4.50;;;;;;;26.88;43.13;99215.91;4961369;28;20562;-96
2022/06/13 11:44:14;;;;;;;6.88;3.80;;;;;;;26.92;42.30;99219.50;4963124;28;20033;-94
2022/06/13 11:47:01;;;;;;;7.07;4.22;;;;;;;26.95;42.33;99199.38;4945888;28;20108;-94
2022/06/13 11:49:33;;;;;;;9.20;4.60;;;;;;;26.93;42.69;99182.38;4961671;28;20027;-94
2022/06/13 11:55:27;;;;;;;9.68;6.25;;;;;;;27.21;42.55;99203.91;4978597;28;20047;-93
2022/06/13 11:58:00;;;;;;;6.75;3.60;;;;;;;27.10;42.70;99164.34;4946796;28;20081;-96
2022/06/13 12:04:24;;;;;;;7.45;3.80;;;;;;;27.17;41.43;99173.47;4946420;28;20571;-92
2022/06/13 12:06:56;;;;;;;5.13;3.92;;;;;;;27.12;42.18;99173.03;4966456;28;20050;-95
2022/06/13 12:09:30;;;;;;;9.18;4.03;;;;;;;27.33;41.23;99189.00;4945058;28;20037;-92
2022/06/13 12:12:07;;;;;;;7.78;5.47;;;;;;;27.35;41.79;99172.81;4968502;28;20043;-94
2022/06/13 12:14:40;;;;;;;11.73;4.50;;;;;;;27.27;42.35;99157.34;4940968;28;20033;-94
2022/06/13 12:17:25;;;;;;;7.03;3.83;;;;;;;27.48;42.31;99185.13;4930109;28;20449;-94
2022/06/13 12:19:55;;;;;;;5.82;4.00;;;;;;;27.33;42.02;99159.38;4931021;28;20469;-95
2022/06/13 12:22:35;;;;;;;4.25;3.75;;;;;;;27.43;42.38;99177.19;4945567;28;20027;-95
2022/06/13 12:25:10;;;;;;;6.50;4.15;;;;;;;27.35;42.74;99140.44;4930516;28;20035;-95
2022/06/13 12:28:03;;;;;;;5.40;4.50;;;;;;;27.49;42.89;99159.06;4928873;28;20184;-94
2022/06/13 12:30:51;;;;;;;6.22;3.53;;;;;;;27.64;41.66;99170.19;4943368;28;20025;-94
2022/06/13 12:37:24;;;;;;;10.07;9.00;;;;;;;27.78;42.50;99164.72;4976788;28;20055;-96
2022/06/13 13:08:22;;;;;;;6.93;3.85;;;;;;;28.33;41.28;99133.25;5014924;28;19944;-94
2022/06/13 13:11:12;;;;;;;6.47;3.95;;;;;;;28.67;38.48;99130.09;4989179;28;20101;-94
2022/06/13 13:14:10;;;;;;;4.55;4.00;;;;;;;28.42;40.91;99128.09;5000589;28;20034;-94
2022/06/13 13:20:31;;;;;;;6.65;3.75;;;;;;;28.81;39.84;99119.00;4919042;29;20196;-95
2022/06/13 13:23:33;;;;;;;6.28;3.88;;;;;;;28.93;38.25;99095.59;4923266;28;20103;-92
2022/06/13 13:26:20;;;;;;;5.10;3.80;;;;;;;29.22;37.84;99124.09;4943642;29;20056;-94
2022/06/13 13:46:08;;;;;;;9.60;4.75;;;;;;;31.11;34.88;99090.72;4907314;29;20043;-96
2022/06/13 13:49:33;;;;;;;7.10;3.83;;;;;;;31.01;34.73;99053.47;4938417;29;20433;-96
2022/06/13 14:00:09;;;;;;;6.15;4.15;;;;;;;32.06;33.18;99077.16;4944022;28;20118;-94
2022/06/13 14:02:44;;;;;;;8.63;3.55;;;;;;;32.58;32.83;99062.78;4848352;29;20114;-95
2022/06/13 14:05:33;;;;;;;7.20;4.10;;;;;;;33.16;32.02;99063.31;4864811;29;20049;-94
2022/06/13 14:11:25;;;;;;;4.30;3.90;;;;;;;33.55;30.65;99036.53;4953028;29;20118;-90
2022/06/13 14:14:08;;;;;;;9.18;4.10;;;;;;;33.57;31.95;99030.53;4952017;29;20031;-93
2022/06/13 14:16:45;;;;;;;4.47;3.63;;;;;;;33.93;31.03;99049.28;4953408;29;20038;-91
2022/06/13 14:19:44;;;;;;;4.40;3.40;;;;;;;33.79;30.98;99042.03;4938326;29;20468;-93
2022/06/13 14:22:16;;;;;;;4.63;3.55;;;;;;;34.31;30.17;99043.97;4898803;29;20130;-92
2022/06/13 14:24:56;;;;;;;4.30;3.63;;;;;;;34.13;30.45;99041.63;4884946;29;20418;-93
2022/06/13 14:27:22;;;;;;;4.35;3.78;;;;;;;33.91;30.74;99040.53;4907390;28;20035;-95
2022/06/13 14:29:49;;;;;;;6.28;3.70;;;;;;;33.74;30.73;99025.78;4938858;28;20043;-92
2022/06/13 14:32:27;;;;;;;5.57;4.18;;;;;;;33.68;31.12;99052.66;4934474;28;20082;-95
2022/06/13 14:35:22;;;;;;;;;;;;;;;;;;;;;
2022/06/13 14:37:54;;;;;;;5.57;4.32;;;;;;;33.69;32.52;99034.69;4924648;28;20121;-92
2022/06/13 14:40:57;;;;;;;6.88;3.83;;;;;;;33.25;32.14;99029.25;4965257;28;20027;-96
2022/06/13 14:43:57;;;;;;;5.55;3.95;;;;;;;33.28;31.21;99020.00;4960499;28;20023;-94
2022/06/13 14:46:56;;;;;;;9.60;4.33;;;;;;;33.75;31.32;99021.78;4964117;28;20116;-96
2022/06/13 14:49:33;;;;;;;6.40;3.45;;;;;;;34.17;30.62;99010.81;4967943;28;20266;-94
2022/06/13 14:52:19;;;;;;;13.27;7.53;;;;;;;34.31;30.71;99024.41;4960804;28;20469;-94